.
WxDataArchive / Data Records for 2014-05-09
2014-05-08 May 2014 2014-05-10

Data Records for Friday, 09 May 2014

Time	Temp	Chill	HIndex	Humid	Dewpt	 Wind 	HiWind	WindDir	Rain 	Barom
-----	----	-----	------	-----	-----	------	------	-------	-----	-----
00:00	73.2	73.2	73.2	59	58.0	0	2	270	0.00	29.876 
00:05	73.0	73.0	73.0	59	57.8	0	1	270	0.00	29.876 
00:10	73.0	73.0	73.0	59	57.8	0	1	270	0.00	29.876 
00:15	72.8	72.8	72.8	59	57.6	0	1	270	0.00	29.870 
00:20	72.8	72.8	72.8	60	58.1	0	1	270	0.00	29.870 
00:25	72.7	72.7	72.7	60	58.0	0	4	68	0.00	29.870 
00:30	72.7	72.7	72.7	60	58.0	0	1	68	0.00	29.868 
00:35	72.5	72.5	72.5	60	57.8	0	1	68	0.00	29.868 
00:40	72.3	72.3	72.3	60	57.6	0	1	68	0.00	29.868 
00:45	72.3	72.3	72.3	60	57.6	0	1	68	0.00	29.867 
00:50	72.5	72.5	72.5	60	57.8	0	2	68	0.00	29.867 
00:55	72.5	72.5	72.5	60	57.8	0	2	68	0.00	29.867 
01:00	72.7	72.7	72.7	59	57.5	0	3	68	0.00	29.865 
01:05	72.7	72.7	72.7	59	57.5	0	2	248	0.00	29.865 
01:10	72.7	72.7	72.7	59	57.5	0	3	248	0.00	29.865 
01:15	72.7	72.7	72.7	59	57.5	0	2	248	0.00	29.862 
01:20	72.7	72.7	72.7	59	57.5	0	4	112	0.00	29.862 
01:25	72.7	72.7	72.7	59	57.5	0	3	112	0.00	29.862 
01:30	72.7	72.7	72.7	59	57.5	0	1	112	0.00	29.860 
01:35	72.5	72.5	72.5	58	56.9	0	3	112	0.00	29.860 
01:40	72.5	72.5	72.5	59	57.3	0	1	112	0.00	29.860 
01:45	72.5	72.5	72.5	58	56.9	0	3	112	0.00	29.852 
01:50	72.5	72.5	72.5	57	56.4	1	3	270	0.00	29.852 
01:55	72.7	72.7	72.7	57	56.6	0	3	248	0.00	29.852 
02:00	72.7	72.7	72.7	57	56.6	0	3	248	0.00	29.852 
02:05	72.5	72.5	72.5	57	56.4	0	4	292	0.00	29.852 
02:10	72.5	72.5	72.5	56	55.9	0	2	292	0.00	29.852 
02:15	72.5	72.5	72.5	56	55.9	1	4	270	0.00	29.847 
02:20	72.7	72.7	72.7	55	55.6	0	3	270	0.00	29.847 
02:25	72.7	72.7	72.7	55	55.6	0	3	270	0.00	29.847 
02:30	72.7	72.7	72.7	55	55.6	0	3	270	0.00	29.846 
02:35	72.5	72.5	72.5	55	55.4	0	3	270	0.00	29.846 
02:40	72.5	72.5	72.5	55	55.4	0	3	270	0.00	29.846 
02:45	72.3	72.3	72.3	55	55.2	0	3	270	0.00	29.845 
02:50	72.3	72.3	72.3	55	55.2	0	3	270	0.00	29.845 
02:55	72.1	72.1	72.1	55	55.0	0	1	270	0.00	29.845 
03:00	72.1	72.1	72.1	55	55.0	0	2	270	0.00	29.841 
03:05	72.0	72.0	72.0	55	54.9	0	2	270	0.00	29.841 
03:10	72.0	72.0	72.0	55	54.9	0	5	68	0.00	29.841 
03:15	71.8	71.8	71.8	54	54.2	0	2	68	0.00	29.835 
03:20	71.8	71.8	71.8	54	54.2	0	3	68	0.00	29.835 
03:25	71.6	71.6	71.6	54	54.1	0	4	68	0.00	29.835 
03:30	71.6	71.6	71.6	54	54.1	0	3	68	0.00	29.833 
03:35	71.5	71.5	71.5	54	54.0	0	2	68	0.00	29.833 
03:40	71.3	71.3	71.3	55	54.3	0	2	68	0.00	29.833 
03:45	71.1	71.1	71.1	54	53.6	0	1	68	0.00	29.833 
03:50	70.9	70.9	70.9	55	53.9	0	1	22	0.00	29.833 
03:55	70.8	70.8	70.8	55	53.8	0	1	22	0.00	29.833 
04:00	70.8	70.8	70.8	55	53.8	0	3	248	0.00	29.835 
04:05	70.6	70.6	70.6	55	53.6	0	2	248	0.00	29.835 
04:10	70.4	70.4	70.4	55	53.4	0	1	248	0.00	29.835 
04:15	70.4	70.4	70.4	55	53.4	0	1	248	0.00	29.831 
04:20	70.3	70.3	70.3	55	53.4	0	2	248	0.00	29.831 
04:25	70.3	70.3	70.3	55	53.4	0	1	248	0.00	29.831 
04:30	70.3	70.3	70.3	55	53.4	0	2	248	0.00	29.832 
04:35	70.3	70.3	70.3	54	52.9	0	1	248	0.00	29.832 
04:40	70.4	70.4	70.4	54	52.9	0	1	248	0.00	29.832 
04:45	70.4	70.4	70.4	54	52.9	0	3	270	0.00	29.826 
04:50	70.6	70.6	70.6	54	53.1	0	3	270	0.00	29.826 
04:55	70.8	70.8	70.8	54	53.3	0	2	270	0.00	29.826 
05:00	70.9	70.9	70.9	54	53.4	1	4	270	0.00	29.819 
05:05	70.9	70.9	70.9	54	53.4	0	3	270	0.00	29.819 
05:10	71.1	71.1	71.1	54	53.6	1	4	270	0.00	29.819 
05:15	71.1	71.1	71.1	55	54.1	0	4	248	0.00	29.821 
05:20	71.3	71.3	71.3	55	54.3	0	4	248	0.00	29.821 
05:25	71.3	71.3	71.3	55	54.3	0	2	248	0.00	29.821 
05:30	71.1	71.1	71.1	56	54.6	0	1	248	0.00	29.813 
05:35	70.9	70.9	70.9	57	54.9	0	4	248	0.00	29.813 
05:40	70.9	70.9	70.9	57	54.9	1	3	248	0.00	29.813 
05:45	71.1	71.1	71.1	58	55.6	1	4	248	0.00	29.821 
05:50	71.1	71.1	71.1	58	55.6	0	4	248	0.00	29.821 
05:55	71.1	71.1	71.1	58	55.6	0	2	248	0.00	29.821 
06:00	70.9	70.9	70.9	59	55.8	0	1	248	0.00	29.814 
06:05	70.8	70.8	70.8	60	56.2	0	1	248	0.00	29.814 
06:10	70.6	70.6	70.6	61	56.5	0	1	248	0.00	29.814 
06:15	70.4	70.4	70.4	61	56.3	0	1	248	0.00	29.820 
06:20	70.1	70.1	70.1	61	56.0	0	1	248	0.00	29.820 
06:25	69.9	69.9	69.9	62	56.3	0	3	248	0.00	29.820 
06:30	69.8	69.8	69.8	62	56.2	0	1	248	0.00	29.803 
06:35	69.8	69.8	69.8	62	56.2	0	1	248	0.00	29.803 
06:40	69.8	69.8	69.8	63	56.6	0	1	248	0.00	29.803 
06:45	69.6	69.6	69.6	63	56.4	0	1	248	0.00	29.807 
06:50	69.4	69.4	69.4	64	56.7	0	1	248	0.00	29.807 
06:55	69.4	69.4	69.4	64	56.7	0	2	248	0.00	29.807 
07:00	69.6	69.6	69.6	64	56.9	1	5	248	0.00	29.799 
07:05	69.6	69.6	69.6	64	56.9	0	2	248	0.00	29.799 
07:10	69.4	69.4	69.4	64	56.7	0	1	248	0.00	29.799 
07:15	69.4	69.4	69.4	65	57.1	0	2	248	0.00	29.818 
07:20	69.3	69.3	69.3	65	57.0	0	1	248	0.00	29.818 
07:25	69.1	69.1	69.1	66	57.3	0	1	248	0.00	29.818 
07:30	68.9	68.9	68.9	67	57.5	0	1	248	0.00	29.834 
07:35	68.8	68.8	68.8	67	57.4	0	1	248	0.00	29.834 
07:40	68.6	68.6	68.6	68	57.6	0	2	248	0.00	29.834 
07:45	68.6	68.6	68.6	68	57.6	0	2	248	0.00	29.832 
07:50	68.8	68.8	68.8	69	58.2	0	1	248	0.00	29.832 
07:55	68.8	68.8	68.8	69	58.2	0	1	248	0.00	29.832 
08:00	68.8	68.8	68.8	70	58.6	0	1	248	0.00	29.827 
08:05	68.8	68.8	68.8	70	58.6	0	1	248	0.00	29.827 
08:10	68.8	68.8	68.8	71	59.0	0	1	248	0.00	29.827 
08:15	68.9	68.9	68.9	71	59.1	0	2	248	0.00	29.834 
08:20	68.9	68.9	68.9	71	59.1	0	1	248	0.00	29.834 
08:25	69.1	69.1	69.1	71	59.3	0	2	248	0.00	29.834 
08:30	69.3	69.3	69.3	70	59.1	1	3	248	0.00	29.829 
08:35	69.6	69.6	69.6	70	59.4	0	2	248	0.00	29.829 
08:40	69.6	69.6	69.6	70	59.4	0	2	248	0.00	29.829 
08:45	69.8	69.8	69.8	69	59.2	0	1	248	0.00	29.821 
08:50	69.8	69.8	69.8	69	59.2	0	2	248	0.00	29.821 
08:55	69.9	69.9	69.9	69	59.3	0	1	248	0.00	29.821 
09:00	70.1	70.1	70.1	67	58.6	0	2	248	0.00	29.811 
09:05	70.3	70.3	70.3	65	58.0	0	3	248	0.00	29.811 
09:10	70.4	70.4	70.4	64	57.6	0	1	248	0.00	29.811 
09:15	70.6	70.6	70.6	62	56.9	1	5	248	0.00	29.809 
09:20	70.6	70.6	70.6	60	56.0	1	3	248	0.00	29.809 
09:25	70.9	70.9	70.9	58	55.4	1	5	225	0.00	29.809 
09:30	71.1	71.1	71.1	56	54.6	1	5	112	0.00	29.805 
09:35	71.5	71.5	71.5	54	54.0	2	6	112	0.00	29.805 
09:40	71.8	71.8	71.8	54	54.2	1	4	90	0.00	29.805 
09:45	72.1	72.1	72.1	54	54.5	1	4	90	0.00	29.798 
09:50	72.7	72.7	72.7	53	54.6	1	3	90	0.00	29.798 
09:55	72.8	72.8	72.8	53	54.7	1	4	90	0.00	29.798 
10:00	73.0	73.0	73.0	55	55.9	0	2	90	0.00	29.790 
10:05	73.3	73.3	73.3	54	55.6	1	4	90	0.00	29.790 
10:10	73.3	73.3	73.3	54	55.6	1	3	68	0.00	29.790 
10:15	73.3	73.3	73.3	54	55.6	1	3	90	0.00	29.787 
10:20	73.3	73.3	73.3	54	55.6	1	4	202	0.00	29.787 
10:25	73.3	73.3	73.3	54	55.6	1	4	292	0.00	29.787 
10:30	72.7	72.7	72.7	59	57.5	1	4	270	0.00	29.787 
10:35	71.8	71.8	71.8	60	57.2	2	5	248	0.00	29.787 
10:40	71.3	71.3	71.3	63	58.0	1	3	248	0.00	29.787 
10:45	71.1	71.1	71.1	63	57.9	1	3	248	0.00	29.792 
10:50	70.9	70.9	70.9	64	58.1	1	5	248	0.00	29.792 
10:55	70.4	70.4	70.4	70	60.1	1	3	270	0.02	29.792 
11:00	69.1	69.1	69.1	75	60.8	1	5	270	0.01	29.808 
11:05	67.8	67.8	67.8	78	60.7	1	5	248	0.00	29.808 
11:10	67.3	67.3	67.3	80	60.9	1	5	248	0.00	29.808 
11:15	66.9	66.9	66.9	80	60.5	1	4	248	0.00	29.812 
11:20	66.9	66.9	66.9	81	60.9	1	4	90	0.00	29.812 
11:25	66.8	66.8	66.8	82	61.1	1	4	270	0.01	29.812 
11:30	66.8	66.8	66.8	82	61.1	0	3	270	0.00	29.783 
11:35	66.9	66.9	66.9	82	61.2	0	3	248	0.00	29.783 
11:40	67.1	67.1	67.1	82	61.4	0	2	248	0.00	29.783 
11:45	67.1	67.1	67.1	82	61.4	0	2	248	0.00	29.780 
11:50	67.1	67.1	67.1	82	61.4	0	3	248	0.00	29.780 
11:55	67.1	67.1	67.1	82	61.4	0	3	248	0.00	29.780 
12:00	67.3	67.3	67.3	81	61.3	0	2	248	0.00	29.790 
12:05	67.3	67.3	67.3	81	61.3	1	3	248	0.00	29.790 
12:10	67.3	67.3	67.3	77	59.8	2	11	248	0.00	29.790 
12:15	67.6	67.6	67.6	74	59.0	2	11	248	0.00	29.785 
12:20	67.8	67.8	67.8	74	59.2	1	5	270	0.00	29.785 
12:25	68.1	68.1	68.1	74	59.5	1	3	270	0.00	29.785 
12:30	68.3	68.3	68.3	74	59.7	0	4	248	0.00	29.781 
12:35	68.4	68.4	68.4	73	59.4	2	5	248	0.00	29.781 
12:40	68.4	68.4	68.4	73	59.4	1	5	248	0.00	29.781 
12:45	68.4	68.4	68.4	72	59.0	1	12	68	0.00	29.772 
12:50	68.6	68.6	68.6	72	59.2	1	6	270	0.00	29.772 
12:55	68.6	68.6	68.6	72	59.2	1	5	270	0.00	29.772 
13:00	68.6	68.6	68.6	71	58.8	1	3	248	0.00	29.765 
13:05	68.6	68.6	68.6	71	58.8	1	3	248	0.00	29.765 
13:10	68.6	68.6	68.6	70	58.4	1	6	248	0.00	29.765 
13:15	68.6	68.6	68.6	70	58.4	1	3	90	0.00	29.765 
13:20	68.9	68.9	68.9	69	58.3	1	6	90	0.00	29.765 
13:25	69.3	69.3	69.3	67	57.9	1	7	68	0.00	29.765 
13:30	69.6	69.6	69.6	67	58.1	1	6	270	0.00	29.761 
13:35	70.1	70.1	70.1	66	58.2	1	11	248	0.00	29.761 
13:40	70.3	70.3	70.3	64	57.5	1	5	315	0.00	29.761 
13:45	70.6	70.6	70.6	64	57.8	1	6	270	0.00	29.759 
13:50	71.1	71.1	71.1	63	57.9	1	7	248	0.00	29.759 
13:55	71.5	71.5	71.5	62	57.8	1	5	90	0.00	29.759 
14:00	71.3	71.3	71.3	62	57.6	1	4	338	0.00	29.753 
14:05	70.9	70.9	70.9	62	57.2	2	6	270	0.00	29.753 
14:10	70.8	70.8	70.8	62	57.1	1	5	270	0.00	29.753 
14:15	70.6	70.6	70.6	63	57.4	2	7	248	0.00	29.752 
14:20	70.4	70.4	70.4	63	57.2	2	9	270	0.00	29.752 
14:25	70.8	70.8	70.8	63	57.6	1	5	270	0.00	29.752 
14:30	70.9	70.9	70.9	64	58.1	1	3	248	0.00	29.750 
14:35	70.9	70.9	70.9	63	57.7	1	4	270	0.00	29.750 
14:40	70.9	70.9	70.9	63	57.7	1	5	248	0.00	29.750 
14:45	70.8	70.8	70.8	63	57.6	1	6	248	0.00	29.749 
14:50	70.6	70.6	70.6	63	57.4	2	5	248	0.00	29.749 
14:55	70.6	70.6	70.6	64	57.8	2	7	270	0.00	29.749 
15:00	70.4	70.4	70.4	65	58.1	1	5	68	0.00	29.745 
15:05	70.3	70.3	70.3	66	58.4	2	4	270	0.00	29.745 
15:10	70.1	70.1	70.1	69	59.4	1	4	248	0.00	29.745 
15:15	69.4	69.4	69.4	73	60.4	1	5	248	0.01	29.751 
15:20	68.4	68.4	68.4	79	61.6	1	4	248	0.02	29.751 
15:25	67.4	67.4	67.4	82	61.7	1	3	248	0.00	29.751 
15:30	66.9	66.9	66.9	84	61.9	0	2	248	0.00	29.752 
15:35	66.8	66.8	66.8	85	62.1	0	2	248	0.00	29.752 
15:40	66.8	66.8	66.8	86	62.5	0	1	248	0.00	29.752 
15:45	66.9	66.9	66.9	86	62.6	0	1	248	0.00	29.752 
15:50	67.1	67.1	67.1	86	62.8	0	1	248	0.00	29.752 
15:55	67.4	67.4	67.4	86	63.1	0	1	248	0.00	29.752 
16:00	68.4	68.4	68.4	86	64.0	0	1	248	0.00	29.745 
16:05	68.9	68.9	68.9	84	63.9	0	2	248	0.00	29.745 
16:10	69.4	69.4	69.4	82	63.7	0	4	248	0.00	29.745 
16:15	70.1	70.1	70.1	80	63.6	1	3	248	0.00	29.734 
16:20	70.9	70.9	70.9	78	63.7	0	3	248	0.00	29.734 
16:25	72.1	72.1	72.1	77	64.5	1	5	248	0.00	29.734 
16:30	73.2	73.2	73.2	73	64.0	1	3	248	0.00	29.726 
16:35	74.4	74.4	74.4	73	65.2	0	2	248	0.00	29.726 
16:40	74.9	74.9	74.9	66	62.8	2	6	248	0.00	29.726 
16:45	75.6	75.6	77.6	63	62.1	2	6	248	0.00	29.720 
16:50	76.0	76.0	78.0	61	61.6	2	7	248	0.00	29.720 
16:55	76.1	76.1	78.0	63	62.6	1	4	248	0.00	29.720 
17:00	76.0	76.0	78.0	61	61.6	2	5	248	0.00	29.714 
17:05	76.0	76.0	78.0	62	62.0	1	5	248	0.00	29.714 
17:10	76.1	76.1	78.1	61	61.7	1	3	248	0.00	29.714 
17:15	76.5	76.5	78.4	61	62.0	1	5	248	0.00	29.707 
17:20	76.8	76.8	78.6	59	61.4	1	4	248	0.00	29.707 
17:25	77.2	77.2	78.9	57	60.8	1	4	270	0.00	29.707 
17:30	77.2	77.2	78.9	58	61.3	1	4	248	0.00	29.701 
17:35	77.0	77.0	78.8	60	62.0	1	4	270	0.00	29.701 
17:40	76.7	76.7	78.5	59	61.3	0	2	338	0.00	29.701 
17:45	76.5	76.5	78.4	59	61.1	1	3	292	0.00	29.701 
17:50	76.1	76.1	78.1	60	61.2	1	4	112	0.00	29.701 
17:55	76.1	76.1	78.1	60	61.2	0	3	225	0.00	29.701 
18:00	76.5	76.5	78.4	57	60.1	1	3	225	0.00	29.713 
18:05	76.7	76.7	78.5	57	60.3	1	3	248	0.00	29.713 
18:10	76.5	76.5	78.4	57	60.1	1	5	248	0.00	29.713 
18:15	76.1	76.1	78.1	56	59.2	1	4	248	0.00	29.713 
18:20	76.0	76.0	78.1	57	59.6	0	3	248	0.00	29.713 
18:25	75.8	75.8	77.9	56	59.0	1	3	248	0.00	29.713 
18:30	75.6	75.6	77.8	56	58.8	1	3	248	0.00	29.714 
18:35	73.2	73.2	73.2	40	47.4	7	18	270	0.00	29.714 
18:40	67.9	67.9	67.9	55	51.1	6	17	270	0.02	29.714 
18:45	63.2	63.2	63.2	65	51.2	6	12	270	0.03	29.743 
18:50	61.5	61.5	61.5	73	52.8	4	9	270	0.00	29.743 
18:55	60.7	60.7	60.7	76	53.1	3	6	270	0.01	29.743 
19:00	60.9	60.9	60.9	77	53.6	2	4	270	0.00	29.743 
19:05	61.2	61.2	61.2	79	54.6	0	3	270	0.00	29.743 
19:10	61.2	61.2	61.2	79	54.6	0	1	270	0.00	29.743 
19:15	61.2	61.2	61.2	80	55.0	0	0	---	0.00	29.735 
19:20	61.3	61.3	61.3	81	55.4	0	0	---	0.00	29.735 
19:25	61.3	61.3	61.3	81	55.4	0	1	270	0.00	29.735 
19:30	61.6	61.6	61.6	80	55.4	0	1	270	0.00	29.732 
19:35	62.0	62.0	62.0	79	55.4	0	1	270	0.00	29.732 
19:40	62.1	62.1	62.1	80	55.9	0	2	270	0.00	29.732 
19:45	62.4	62.4	62.4	80	56.1	0	2	270	0.00	29.736 
19:50	62.6	62.6	62.6	80	56.3	0	2	270	0.00	29.736 
19:55	62.7	62.7	62.7	79	56.1	0	1	270	0.00	29.736 
20:00	62.7	62.7	62.7	78	55.7	0	1	270	0.00	29.733 
20:05	62.7	62.7	62.7	78	55.7	0	1	270	0.00	29.733 
20:10	62.7	62.7	62.7	78	55.7	0	1	270	0.00	29.733 
20:15	63.1	63.1	63.1	78	56.1	0	0	---	0.00	29.730 
20:20	63.2	63.2	63.2	78	56.2	0	0	---	0.00	29.730 
20:25	63.2	63.2	63.2	79	56.6	0	0	---	0.00	29.730 
20:30	63.2	63.2	63.2	79	56.6	0	1	270	0.00	29.733 
20:35	63.4	63.4	63.4	79	56.8	0	0	---	0.00	29.733 
20:40	63.4	63.4	63.4	79	56.8	0	1	180	0.00	29.733 
20:45	63.4	63.4	63.4	79	56.8	0	3	180	0.00	29.738 
20:50	63.4	63.4	63.4	79	56.8	1	3	112	0.00	29.738 
20:55	63.4	63.4	63.4	79	56.8	0	2	112	0.00	29.738 
21:00	63.2	63.2	63.2	80	56.9	1	3	112	0.00	29.757 
21:05	63.2	63.2	63.2	80	56.9	1	3	112	0.00	29.757 
21:10	63.2	63.2	63.2	80	56.9	0	3	112	0.00	29.757 
21:15	63.2	63.2	63.2	79	56.6	1	3	112	0.00	29.771 
21:20	63.4	63.4	63.4	80	57.1	0	3	112	0.00	29.771 
21:25	63.5	63.5	63.5	82	57.9	1	4	90	0.00	29.771 
21:30	63.5	63.5	63.5	82	57.9	1	4	270	0.01	29.770 
21:35	63.5	63.5	63.5	82	57.9	2	9	270	0.00	29.770 
21:40	63.4	63.4	63.4	80	57.1	1	4	270	0.01	29.770 
21:45	63.1	63.1	63.1	80	56.8	2	6	270	0.01	29.788 
21:50	62.6	62.6	62.6	79	56.0	2	5	248	0.02	29.788 
21:55	62.0	62.0	62.0	81	56.1	1	4	248	0.01	29.788 
22:00	61.5	61.5	61.5	81	55.6	2	10	90	0.01	29.768 
22:05	61.3	61.3	61.3	82	55.8	1	5	90	0.00	29.768 
22:10	61.0	61.0	61.0	82	55.5	1	3	90	0.00	29.768 
22:15	61.0	61.0	61.0	83	55.8	1	3	248	0.00	29.788 
22:20	60.9	60.9	60.9	83	55.7	0	2	338	0.00	29.788 
22:25	60.7	60.7	60.7	84	55.8	0	1	338	0.00	29.788 
22:30	60.5	60.5	60.5	84	55.6	0	1	338	0.00	29.789 
22:35	60.4	60.4	60.4	84	55.5	0	1	338	0.00	29.789 
22:40	60.2	60.2	60.2	84	55.3	0	2	338	0.00	29.789 
22:45	60.1	60.1	60.1	84	55.2	0	0	---	0.00	29.792 
22:50	60.1	60.1	60.1	84	55.2	0	2	338	0.00	29.792 
22:55	60.1	60.1	60.1	84	55.2	0	1	338	0.00	29.792 
23:00	60.2	60.2	60.2	84	55.3	0	2	338	0.00	29.795 
23:05	60.5	60.5	60.5	82	55.0	1	3	338	0.00	29.795 
23:10	60.7	60.7	60.7	81	54.8	1	3	338	0.00	29.795 
23:15	61.0	61.0	61.0	80	54.8	1	3	338	0.00	29.797 
23:20	61.2	61.2	61.2	78	54.3	1	3	338	0.00	29.797 
23:25	61.3	61.3	61.3	78	54.4	1	2	338	0.00	29.797 
23:30	61.3	61.3	61.3	77	54.0	1	3	338	0.00	29.806 
23:35	61.3	61.3	61.3	77	54.0	1	2	315	0.00	29.806 
23:40	61.5	61.5	61.5	77	54.2	1	4	248	0.00	29.806 
23:45	61.5	61.5	61.5	77	54.2	0	2	248	0.00	29.807 
23:50	61.3	61.3	61.3	77	54.0	1	2	248	0.00	29.807 
23:55	61.3	61.3	61.3	77	54.0	0	2	248	0.00	29.807 

CoCoRaHS
IN-AL-39
A2 Web Hosting
Creative Commons License
GoDaddy
search engine by freefind advanced

loaded 2018-11-20 15:24:26 • last modified 2010-11-18 10:43:29
Privacy PolicyDisclaimer
• wx.awcolley.com is powered by PmWiki v.2002016 •
• all content (unless otherwise noted) © 2018 A W Colley